Time;durP1;ratioP1;P1;durP2;ratioP2;P2;SDS_P1;SDS_P2;PMS_P1;PMS_P2;Temp;Humidity;BMP_temperature;BMP_pressure;BME280_temperature;BME280_humidity;BME280_pressure;Samples;Min_cycle;Max_cycle;Signal;HPM_P1;HPM_P2
2023/02/15 00:02:25;;;;;;;34.28;22.13;;;4.10;99.90;;;;;;5030827;28;20210;-49
2023/02/15 00:05:11;;;;;;;34.25;24.85;;;4.20;99.90;;;;;;5031075;28;20516;-47
2023/02/15 00:07:57;;;;;;;35.83;23.92;;;4.10;99.90;;;;;;5029936;28;20486;-46
2023/02/15 00:10:45;;;;;;;36.15;23.63;;;4.20;99.90;;;;;;5028630;28;20038;-48
2023/02/15 00:13:32;;;;;;;39.35;24.92;;;4.20;99.90;;;;;;5030950;28;20088;-46
2023/02/15 00:16:18;;;;;;;37.70;25.92;;;4.20;99.90;;;;;;5030568;28;20084;-48
2023/02/15 00:19:04;;;;;;;37.20;25.10;;;4.10;99.90;;;;;;5016185;28;20076;-50
2023/02/15 00:21:51;;;;;;;37.45;25.33;;;4.00;99.90;;;;;;5030068;28;20037;-50
2023/02/15 00:24:36;;;;;;;35.47;24.10;;;3.90;99.90;;;;;;5029705;28;20478;-45
2023/02/15 00:27:23;;;;;;;36.22;24.05;;;3.90;99.90;;;;;;5030361;28;20034;-47
2023/02/15 00:30:09;;;;;;;39.47;25.50;;;3.90;99.90;;;;;;5029268;28;20030;-49
2023/02/15 00:32:55;;;;;;;39.78;23.98;;;3.80;99.90;;;;;;5030890;28;20037;-47
2023/02/15 00:35:41;;;;;;;37.50;25.30;;;3.90;99.90;;;;;;5030476;28;20025;-46
2023/02/15 00:38:28;;;;;;;37.25;25.80;;;3.80;99.90;;;;;;5030412;28;20033;-47
2023/02/15 00:41:13;;;;;;;27.60;21.85;;;3.70;99.90;;;;;;5030715;28;20038;-46
2023/02/15 00:44:00;;;;;;;56.42;27.90;;;3.70;99.90;;;;;;5017465;28;20076;-45
2023/02/15 00:46:46;;;;;;;48.92;28.27;;;3.50;99.90;;;;;;5029803;28;20037;-45
2023/02/15 00:49:32;;;;;;;48.45;28.08;;;3.30;99.90;;;;;;5030160;28;20128;-46
2023/02/15 00:52:17;;;;;;;84.72;30.45;;;3.20;99.90;;;;;;5030118;28;20490;-45
2023/02/15 00:55:04;;;;;;;44.22;29.02;;;3.10;99.90;;;;;;5033931;28;20029;-45
2023/02/15 00:57:49;;;;;;;45.53;26.92;;;2.80;99.90;;;;;;5033501;28;20022;-47
2023/02/15 01:00:36;;;;;;;39.45;25.95;;;2.80;99.90;;;;;;5033587;28;20033;-47
2023/02/15 01:03:22;;;;;;;39.45;26.38;;;2.80;99.90;;;;;;5034070;28;20029;-46
2023/02/15 01:06:09;;;;;;;42.28;28.08;;;2.80;99.90;;;;;;5014358;28;20514;-48
2023/02/15 01:08:55;;;;;;;48.80;25.88;;;2.90;99.90;;;;;;5021025;28;20029;-45
2023/02/15 01:11:41;;;;;;;38.83;25.38;;;2.80;99.90;;;;;;5033759;28;20105;-44
2023/02/15 01:14:27;;;;;;;42.70;26.80;;;2.80;99.90;;;;;;5035139;28;20043;-44
2023/02/15 01:17:13;;;;;;;49.42;29.73;;;2.90;99.90;;;;;;5033904;28;20029;-45
2023/02/15 01:19:59;;;;;;;47.33;28.92;;;2.90;99.90;;;;;;5032513;28;20565;-46
2023/02/15 01:22:45;;;;;;;50.75;28.95;;;3.00;99.90;;;;;;5033850;28;20120;-44
2023/02/15 01:25:33;;;;;;;50.33;30.35;;;3.00;99.90;;;;;;5034173;28;20502;-45
2023/02/15 01:28:19;;;;;;;54.83;30.60;;;3.00;99.90;;;;;;5033059;28;20049;-47
2023/02/15 01:31:10;;;;;;;78.07;31.60;;;3.10;99.90;;;;;;5033753;28;20120;-47
2023/02/15 01:33:55;;;;;;;101.40;31.80;;;3.10;99.90;;;;;;5034216;28;20033;-44
2023/02/15 01:36:41;;;;;;;112.25;33.20;;;3.00;99.90;;;;;;5033969;28;20022;-48
2023/02/15 01:39:27;;;;;;;60.30;31.33;;;2.90;99.90;;;;;;5030087;28;20111;-44
2023/02/15 01:42:13;;;;;;;78.10;31.38;;;2.80;99.90;;;;;;5032841;28;20405;-46
2023/02/15 01:45:22;;;;;;;55.38;29.75;;;2.80;99.90;;;;;;5033658;28;20608;-46
2023/02/15 01:48:25;;;;;;;56.38;28.35;;;2.90;99.90;;;;;;5032223;28;20120;-45
2023/02/15 01:51:12;;;;;;;51.38;29.63;;;2.90;99.90;;;;;;5033384;28;20057;-48
2023/02/15 01:54:05;;;;;;;74.78;29.63;;;2.80;99.90;;;;;;5033157;28;20452;-44
2023/02/15 01:56:53;;;;;;;47.50;29.15;;;2.80;99.90;;;;;;5032561;28;20026;-51
2023/02/15 01:59:45;;;;;;;77.22;28.77;;;2.80;99.90;;;;;;5013605;28;20578;-50
2023/02/15 02:02:34;;;;;;;46.15;28.00;;;2.80;99.90;;;;;;5020045;28;20039;-49
2023/02/15 02:05:21;;;;;;;103.75;29.85;;;2.70;99.90;;;;;;5032457;28;20060;-44
2023/02/15 02:08:09;;;;;;;99.38;27.55;;;2.70;99.90;;;;;;5032428;28;20493;-49
2023/02/15 02:10:55;;;;;;;58.95;27.98;;;2.50;99.90;;;;;;5017983;28;20029;-44
2023/02/15 02:13:44;;;;;;;114.18;30.73;;;2.40;99.90;;;;;;5032570;28;20030;-44
2023/02/15 02:16:48;;;;;;;85.65;28.23;;;2.40;99.90;;;;;;5031819;28;20029;-48
2023/02/15 02:19:57;;;;;;;74.15;30.10;;;2.30;99.90;;;;;;5032702;28;20094;-47
2023/02/15 02:22:58;;;;;;;78.07;28.95;;;2.30;99.90;;;;;;5032585;28;20064;-45
2023/02/15 02:25:44;;;;;;;54.95;29.17;;;2.30;99.90;;;;;;5032758;28;20397;-51
2023/02/15 02:28:54;;;;;;;49.03;29.48;;;2.40;99.90;;;;;;5031401;28;20099;-46
2023/02/15 02:31:48;;;;;;;65.25;29.85;;;2.40;99.90;;;;;;5016782;28;20095;-49
2023/02/15 02:34:47;;;;;;;52.08;27.23;;;2.50;99.90;;;;;;5032005;28;20018;-45
2023/02/15 02:37:51;;;;;;;67.78;27.80;;;2.50;99.90;;;;;;5031781;28;20131;-47
2023/02/15 02:40:56;;;;;;;59.85;27.92;;;2.50;99.90;;;;;;5031092;28;20059;-45
2023/02/15 02:44:08;;;;;;;54.17;28.27;;;2.50;99.90;;;;;;5031140;28;20461;-48
2023/02/15 02:47:09;;;;;;;106.75;27.35;;;2.50;99.90;;;;;;5031035;28;20269;-46
2023/02/15 02:50:01;;;;;;;91.10;27.13;;;2.40;99.90;;;;;;5031076;28;20037;-45
2023/02/15 02:52:55;;;;;;;133.70;26.27;;;2.10;99.90;;;;;;5030694;28;20406;-50
2023/02/15 02:55:58;;;;;;;146.20;27.17;;;2.00;99.90;;;;;;5032209;28;20144;-49
2023/02/15 02:59:00;;;;;;;90.97;24.25;;;1.80;99.90;;;;;;5031671;28;20030;-44
2023/02/15 03:01:55;;;;;;;83.93;22.92;;;1.60;99.90;;;;;;5030979;28;20033;-47
2023/02/15 03:04:46;;;;;;;54.08;24.48;;;1.50;99.90;;;;;;5032094;28;20030;-49
2023/02/15 03:07:35;;;;;;;74.28;22.33;;;1.40;99.90;;;;;;5030718;28;20073;-45
2023/02/15 03:10:24;;;;;;;65.57;26.13;;;1.30;99.90;;;;;;5030785;28;20469;-47
2023/02/15 03:13:10;;;;;;;50.50;26.83;;;1.40;99.90;;;;;;5012660;28;20052;-45
2023/02/15 03:19:11;;;;;;;35.55;21.50;;;1.70;99.90;;;;;;5031582;28;20033;-45
2023/02/15 03:22:10;;;;;;;39.85;20.55;;;1.80;99.90;;;;;;5030442;28;20037;-45
2023/02/15 03:25:07;;;;;;;33.60;19.60;;;1.80;99.90;;;;;;5030331;28;20025;-45
2023/02/15 03:27:58;;;;;;;34.92;18.33;;;1.90;99.90;;;;;;5030832;28;20506;-45
2023/02/15 03:30:49;;;;;;;33.13;19.08;;;1.90;99.90;;;;;;5031283;28;20033;-45
2023/02/15 03:33:37;;;;;;;33.90;21.42;;;1.90;99.90;;;;;;5031001;28;20219;-46
2023/02/15 03:36:36;;;;;;;31.17;17.63;;;1.90;99.90;;;;;;5031043;28;20516;-44
2023/02/15 03:39:37;;;;;;;31.88;17.58;;;1.90;99.90;;;;;;5029845;28;20052;-45
2023/02/15 03:42:32;;;;;;;25.80;16.05;;;1.70;99.90;;;;;;5010956;28;20576;-45
2023/02/15 03:45:26;;;;;;;23.23;16.77;;;1.70;99.90;;;;;;5024447;28;20021;-43
2023/02/15 03:48:13;;;;;;;21.92;14.50;;;1.60;99.90;;;;;;5029751;28;20029;-45
2023/02/15 03:54:12;;;;;;;22.55;15.52;;;1.30;99.90;;;;;;5030322;28;20112;-45
2023/02/15 04:03:39;;;;;;;20.23;14.23;;;1.00;99.90;;;;;;5030887;28;20077;-45
2023/02/15 04:06:25;;;;;;;17.38;12.73;;;1.30;99.90;;;;;;5030336;28;20041;-50
2023/02/15 04:12:16;;;;;;;19.55;13.75;;;1.40;99.90;;;;;;5011641;28;20022;-45
2023/02/15 04:18:07;;;;;;;27.55;18.75;;;1.50;99.90;;;;;;5030184;28;20029;-44
2023/02/15 04:27:04;;;;;;;22.38;15.30;;;1.60;99.90;;;;;;5015074;28;20034;-44
2023/02/15 04:29:49;;;;;;;24.33;15.93;;;1.70;99.90;;;;;;5033103;28;20045;-47
2023/02/15 04:32:36;;;;;;;20.48;14.63;;;1.70;99.90;;;;;;5034758;28;20025;-49
2023/02/15 04:35:22;;;;;;;20.23;13.88;;;1.60;99.90;;;;;;5033660;28;20029;-46
2023/02/15 04:38:08;;;;;;;42.47;25.70;;;1.60;99.90;;;;;;5034163;28;20068;-45
2023/02/15 04:40:54;;;;;;;24.92;18.88;;;1.60;99.90;;;;;;5033770;28;20109;-46
2023/02/15 04:43:39;;;;;;;25.70;15.07;;;1.50;99.90;;;;;;5021298;28;20029;-45
2023/02/15 04:46:26;;;;;;;22.90;15.05;;;1.40;99.90;;;;;;5033221;28;20144;-45
2023/02/15 04:49:12;;;;;;;23.08;14.52;;;1.30;99.90;;;;;;5033419;28;20022;-48
2023/02/15 04:51:58;;;;;;;21.23;15.02;;;1.30;99.90;;;;;;5034001;28;20498;-45
2023/02/15 04:54:44;;;;;;;22.35;14.30;;;1.40;99.90;;;;;;5034145;28;20522;-49
2023/02/15 04:57:30;;;;;;;23.38;14.60;;;1.50;99.90;;;;;;5033630;28;20037;-49
2023/02/15 05:00:16;;;;;;;37.47;13.07;;;1.50;99.90;;;;;;5033277;28;20413;-51
2023/02/15 05:03:03;;;;;;;24.83;13.40;;;1.50;99.90;;;;;;5034022;28;20061;-50
2023/02/15 05:05:48;;;;;;;23.15;12.55;;;1.20;99.90;;;;;;5033524;28;20116;-50
2023/02/15 05:08:34;;;;;;;20.10;12.40;;;1.10;99.90;;;;;;5025974;28;20025;-51
2023/02/15 05:11:20;;;;;;;31.52;13.23;;;1.10;99.90;;;;;;5033285;28;20417;-47
2023/02/15 05:14:06;;;;;;;18.88;12.30;;;1.00;99.90;;;;;;5033667;28;20108;-49
2023/02/15 05:16:53;;;;;;;24.45;11.77;;;0.80;99.90;;;;;;5032702;28;20033;-48
2023/02/15 05:19:39;;;;;;;36.00;13.68;;;0.80;99.90;;;;;;5032868;28;20037;-50
2023/02/15 05:22:25;;;;;;;38.47;14.45;;;0.90;99.90;;;;;;5032816;28;20048;-50
2023/02/15 05:28:21;;;;;;;63.13;15.48;;;0.50;99.90;;;;;;5032458;28;20033;-51
2023/02/15 05:31:09;;;;;;;26.98;14.27;;;0.40;99.90;;;;;;5032778;28;20018;-47
2023/02/15 05:33:55;;;;;;;37.03;14.02;;;0.50;99.90;;;;;;5033272;28;20033;-48
2023/02/15 05:36:41;;;;;;;40.42;14.10;;;0.50;99.90;;;;;;5018352;28;20026;-50
2023/02/15 05:39:27;;;;;;;53.40;14.60;;;0.50;99.90;;;;;;5032990;28;20037;-56
2023/02/15 05:42:13;;;;;;;35.42;15.48;;;0.30;99.90;;;;;;5032429;28;20040;-53
2023/02/15 05:44:59;;;;;;;54.33;15.90;;;0.30;99.90;;;;;;5013759;28;20452;-49
2023/02/15 05:47:45;;;;;;;23.40;14.45;;;0.30;99.90;;;;;;5016079;28;20445;-53
2023/02/15 05:50:30;;;;;;;36.10;14.32;;;0.30;99.90;;;;;;5033184;28;20029;-51
2023/02/15 05:53:16;;;;;;;21.73;14.10;;;0.20;99.90;;;;;;5032776;28;20040;-53
2023/02/15 05:56:03;;;;;;;38.35;14.15;;;0.30;99.90;;;;;;5032991;28;20017;-55
2023/02/15 05:58:52;;;;;;;25.60;12.15;;;0.30;99.90;;;;;;5012873;28;20108;-52
2023/02/15 06:01:38;;;;;;;30.63;13.35;;;0.20;99.90;;;;;;5026140;28;20079;-51
2023/02/15 06:04:24;;;;;;;42.65;12.38;;;0.20;99.90;;;;;;5033657;28;20061;-52
2023/02/15 06:07:10;;;;;;;38.75;12.07;;;0.20;99.90;;;;;;5032017;28;20056;-51
2023/02/15 06:09:56;;;;;;;28.35;12.43;;;0.10;99.90;;;;;;5032734;28;20056;-51
2023/02/15 06:12:43;;;;;;;19.75;11.82;;;0.00;99.90;;;;;;5003034;28;20403;-52
2023/02/15 06:15:29;;;;;;;19.42;12.35;;;0.00;99.90;;;;;;5032741;28;20486;-48
2023/02/15 06:18:15;;;;;;;23.83;11.93;;;0.10;99.90;;;;;;5032130;28;20502;-47
2023/02/15 06:21:00;;;;;;;27.70;12.02;;;0.20;99.90;;;;;;5031794;28;20033;-51
2023/02/15 06:23:46;;;;;;;23.52;12.80;;;0.20;99.90;;;;;;5032794;28;20033;-50
2023/02/15 06:26:32;;;;;;;16.92;12.20;;;0.00;99.90;;;;;;5012829;28;20605;-48
2023/02/15 06:29:18;;;;;;;25.20;11.52;;;0.20;99.90;;;;;;5020700;28;20379;-48
2023/02/15 06:32:05;;;;;;;21.08;11.80;;;0.30;99.90;;;;;;5031967;28;20490;-50
2023/02/15 06:34:51;;;;;;;25.58;11.70;;;0.30;99.90;;;;;;5031865;28;20026;-48
2023/02/15 06:37:38;;;;;;;29.10;13.00;;;0.20;99.90;;;;;;5031609;28;20025;-48
2023/02/15 06:40:24;;;;;;;21.95;10.93;;;0.20;99.90;;;;;;5032243;28;20040;-51
2023/02/15 06:43:09;;;;;;;48.78;13.73;;;0.10;99.90;;;;;;5032022;28;20087;-52
2023/02/15 06:45:55;;;;;;;65.80;13.65;;;0.00;99.90;;;;;;5032115;28;20164;-52
2023/02/15 06:48:41;;;;;;;31.23;12.68;;;0.00;99.90;;;;;;5031139;28;20030;-49
2023/02/15 06:51:27;;;;;;;43.15;13.85;;;0.00;99.90;;;;;;5030985;28;20027;-47
2023/02/15 06:54:13;;;;;;;19.05;13.60;;;0.10;99.90;;;;;;5031804;28;20588;-49
2023/02/15 06:56:59;;;;;;;25.75;13.35;;;0.20;99.90;;;;;;5031136;28;20493;-47
2023/02/15 06:59:45;;;;;;;18.08;13.57;;;0.40;99.90;;;;;;5030991;28;20064;-49
2023/02/15 07:02:31;;;;;;;28.52;13.20;;;0.30;99.90;;;;;;5031810;28;20034;-49
2023/02/15 07:05:17;;;;;;;47.35;14.10;;;0.30;99.90;;;;;;5011397;28;20034;-47
2023/02/15 07:08:03;;;;;;;76.20;16.48;;;0.20;99.90;;;;;;5013949;28;20401;-48
2023/02/15 07:10:50;;;;;;;62.75;17.20;;;0.10;99.90;;;;;;5030692;28;20070;-49
2023/02/15 07:13:36;;;;;;;33.30;15.82;;;0.10;99.90;;;;;;5031729;28;20025;-48
2023/02/15 07:16:22;;;;;;;30.85;16.15;;;0.00;99.90;;;;;;5016307;28;20087;-49
2023/02/15 07:19:08;;;;;;;42.58;18.15;;;0.10;99.90;;;;;;5031260;28;20116;-49
2023/02/15 07:21:54;;;;;;;30.02;18.50;;;0.10;99.90;;;;;;5030975;28;20029;-51
2023/02/15 07:24:40;;;;;;;47.78;17.83;;;0.10;99.90;;;;;;5030800;28;20059;-48
2023/02/15 07:27:28;;;;;;;35.15;16.45;;;0.30;99.90;;;;;;5030676;28;20033;-52
2023/02/15 07:30:16;;;;;;;24.20;15.95;;;0.40;99.90;;;;;;5030184;28;20033;-49
2023/02/15 07:36:09;;;;;;;27.42;16.20;;;0.70;99.90;;;;;;5030818;28;20108;-48
2023/02/15 07:38:55;;;;;;;30.08;15.52;;;0.90;99.90;;;;;;5016533;28;20426;-51
2023/02/15 07:41:41;;;;;;;25.20;16.15;;;1.00;99.90;;;;;;5032317;28;20053;-49
2023/02/15 07:44:27;;;;;;;22.70;15.45;;;1.10;99.90;;;;;;5016918;28;20036;-48
2023/02/15 07:47:13;;;;;;;22.73;14.57;;;1.20;99.90;;;;;;5030867;28;20029;-54
2023/02/15 07:49:59;;;;;;;21.52;14.63;;;1.10;99.90;;;;;;5031650;28;20026;-52
2023/02/15 07:52:45;;;;;;;23.40;15.90;;;1.00;99.90;;;;;;5016184;28;20032;-51
2023/02/15 07:55:31;;;;;;;31.98;15.82;;;1.00;99.90;;;;;;5011544;28;20025;-47
2023/02/15 07:58:17;;;;;;;24.35;14.70;;;0.80;99.90;;;;;;5013635;28;20026;-50
2023/02/15 08:01:04;;;;;;;26.70;16.00;;;0.80;99.90;;;;;;5030287;28;20094;-52
2023/02/15 08:03:51;;;;;;;23.83;16.00;;;1.00;99.90;;;;;;5029894;28;20034;-49
2023/02/15 08:06:38;;;;;;;24.48;16.08;;;1.10;99.90;;;;;;5016836;28;20026;-50
2023/02/15 08:09:23;;;;;;;21.58;15.15;;;1.10;99.90;;;;;;5029874;28;20037;-49
2023/02/15 08:12:09;;;;;;;23.98;16.23;;;1.10;99.90;;;;;;5030610;28;20022;-50
2023/02/15 08:14:55;;;;;;;24.40;17.10;;;1.10;99.90;;;;;;5030403;28;20030;-50
2023/02/15 08:17:41;;;;;;;24.48;18.23;;;1.30;99.90;;;;;;5020875;28;20029;-51
2023/02/15 08:20:27;;;;;;;25.25;16.02;;;1.50;99.90;;;;;;5030523;28;20033;-51
2023/02/15 08:23:13;;;;;;;22.25;16.08;;;1.60;99.90;;;;;;5030123;28;20032;-49
2023/02/15 08:26:00;;;;;;;25.70;16.33;;;1.70;99.90;;;;;;5030262;28;20037;-50
2023/02/15 08:28:46;;;;;;;27.90;16.77;;;1.90;99.90;;;;;;5030291;28;20041;-49
2023/02/15 08:31:33;;;;;;;24.95;16.67;;;2.00;99.90;;;;;;5030254;28;20033;-50
2023/02/15 08:34:20;;;;;;;25.27;16.02;;;1.80;99.90;;;;;;5029549;28;20037;-46
2023/02/15 08:37:06;;;;;;;25.42;16.30;;;1.80;99.90;;;;;;5029451;28;20520;-55
2023/02/15 08:39:52;;;;;;;27.27;16.58;;;1.90;99.90;;;;;;5029811;28;20029;-51
2023/02/15 08:42:38;;;;;;;25.48;16.95;;;1.90;99.90;;;;;;5030021;28;20554;-49
2023/02/15 08:45:25;;;;;;;24.70;16.23;;;2.00;99.90;;;;;;5030178;28;20037;-48
2023/02/15 08:48:11;;;;;;;25.00;16.75;;;2.00;99.90;;;;;;5029993;28;20022;-48
2023/02/15 08:50:56;;;;;;;21.40;15.75;;;2.00;99.90;;;;;;5030427;28;20644;-48
2023/02/15 08:53:45;;;;;;;21.23;15.13;;;2.00;99.90;;;;;;5016816;28;20030;-52
2023/02/15 08:56:37;;;;;;;23.58;16.25;;;2.10;99.90;;;;;;5029183;28;20033;-51
2023/02/15 08:59:25;;;;;;;21.15;15.07;;;2.20;99.90;;;;;;5030226;28;20401;-51
2023/02/15 09:02:11;;;;;;;23.88;16.23;;;2.30;99.90;;;;;;5027346;28;20029;-49
2023/02/15 09:04:57;;;;;;;21.85;15.52;;;2.20;99.90;;;;;;5015124;28;20037;-52
2023/02/15 09:07:43;;;;;;;20.83;15.02;;;2.30;99.90;;;;;;5029572;28;20034;-49
2023/02/15 09:10:28;;;;;;;22.27;15.85;;;2.30;99.90;;;;;;5029619;28;20117;-48
2023/02/15 09:13:14;;;;;;;23.13;15.73;;;2.10;99.90;;;;;;5030315;28;20017;-49
2023/02/15 09:16:02;;;;;;;24.52;16.75;;;2.10;99.90;;;;;;5017941;28;20022;-51
2023/02/15 09:18:49;;;;;;;22.67;16.75;;;2.30;99.90;;;;;;5020366;28;20167;-49
2023/02/15 09:21:37;;;;;;;22.48;15.93;;;2.60;99.90;;;;;;5013574;28;20045;-51
2023/02/15 09:24:23;;;;;;;19.58;14.95;;;2.70;99.90;;;;;;5031915;28;20030;-51
2023/02/15 09:27:09;;;;;;;21.58;16.48;;;2.80;99.90;;;;;;5033748;28;20120;-53
2023/02/15 09:29:55;;;;;;;20.30;15.02;;;2.90;99.90;;;;;;5033687;28;20036;-50
2023/02/15 09:32:41;;;;;;;20.67;15.43;;;3.00;99.90;;;;;;5033190;28;20457;-50
2023/02/15 09:35:28;;;;;;;23.90;18.83;;;3.20;99.90;;;;;;5033005;28;20494;-49
2023/02/15 09:38:14;;;;;;;22.23;16.20;;;3.40;99.90;;;;;;5034461;28;20044;-50
2023/02/15 09:41:36;;;;;;;19.13;15.10;;;3.50;99.90;;;;;;5032366;28;20029;-49
2023/02/15 09:44:56;;;;;;;17.83;14.20;;;3.70;99.90;;;;;;4992119;28;20600;-49
2023/02/15 09:47:50;;;;;;;20.00;15.60;;;3.80;99.90;;;;;;5023302;28;20033;-47
2023/02/15 09:51:00;;;;;;;22.90;15.57;;;3.70;99.90;;;;;;5033185;28;20021;-45
2023/02/15 09:54:05;;;;;;;21.45;15.35;;;3.80;99.90;;;;;;5032722;28;20136;-44
2023/02/15 09:57:08;;;;;;;20.58;14.20;;;4.00;99.90;;;;;;5032018;28;20026;-51
2023/02/15 10:00:15;;;;;;;17.92;15.00;;;4.10;99.90;;;;;;5036338;28;20022;-47
2023/02/15 10:03:34;;;;;;;19.23;13.77;;;4.10;99.90;;;;;;5014842;28;20034;-48
2023/02/15 10:06:33;;;;;;;18.95;14.38;;;4.20;99.90;;;;;;5009249;28;20029;-47
2023/02/15 10:09:39;;;;;;;20.77;16.38;;;4.20;99.90;;;;;;5033781;28;20042;-46
2023/02/15 10:12:53;;;;;;;21.58;15.55;;;4.30;99.90;;;;;;5033068;28;20069;-46
2023/02/15 10:15:53;;;;;;;21.60;15.20;;;4.30;99.90;;;;;;5033585;28;20678;-45
2023/02/15 10:19:03;;;;;;;19.15;15.18;;;4.60;99.90;;;;;;5031872;28;20096;-46
2023/02/15 10:21:49;;;;;;;26.20;16.08;;;4.50;99.90;;;;;;5033310;28;20490;-46
2023/02/15 10:24:58;;;;;;;25.17;16.60;;;4.70;99.90;;;;;;5032408;28;20056;-45
2023/02/15 10:27:50;;;;;;;22.60;16.27;;;4.80;99.90;;;;;;5006082;28;20469;-51
2023/02/15 10:30:51;;;;;;;24.27;15.10;;;5.10;99.90;;;;;;5032812;28;20022;-50
2023/02/15 10:33:42;;;;;;;22.50;16.20;;;5.20;99.90;;;;;;5032026;28;20032;-46
2023/02/15 10:36:40;;;;;;;19.08;15.02;;;5.30;99.90;;;;;;5032261;28;20042;-51
2023/02/15 10:39:42;;;;;;;20.15;14.85;;;5.30;99.90;;;;;;5029522;28;20029;-51
2023/02/15 10:42:49;;;;;;;19.60;15.32;;;5.60;99.90;;;;;;5030662;28;20028;-56
2023/02/15 10:45:54;;;;;;;19.95;14.23;;;5.60;99.90;;;;;;5020425;28;20030;-56
2023/02/15 10:49:12;;;;;;;20.25;13.95;;;5.80;99.90;;;;;;5018428;28;20028;-50
2023/02/15 10:52:30;;;;;;;19.73;14.52;;;6.00;99.90;;;;;;5024472;28;20101;-53
2023/02/15 10:55:51;;;;;;;19.23;14.45;;;6.20;99.90;;;;;;5021692;28;20371;-56
2023/02/15 10:59:04;;;;;;;19.17;13.25;;;6.40;99.90;;;;;;5032370;28;20032;-52
2023/02/15 11:02:14;;;;;;;17.85;13.88;;;6.80;99.90;;;;;;4998878;28;20117;-54
2023/02/15 11:05:18;;;;;;;16.63;13.35;;;7.00;99.90;;;;;;5021953;28;20116;-50
2023/02/15 11:08:09;;;;;;;16.08;12.80;;;7.00;99.90;;;;;;5030981;28;20164;-51
2023/02/15 11:11:08;;;;;;;17.95;13.02;;;7.20;99.90;;;;;;5031506;28;20033;-56
2023/02/15 11:14:00;;;;;;;19.00;14.23;;;7.40;99.90;;;;;;5030701;28;20065;-56
2023/02/15 11:16:54;;;;;;;20.50;13.85;;;7.60;99.90;;;;;;5031613;28;20032;-56
2023/02/15 11:20:02;;;;;;;16.75;12.52;;;7.90;99.90;;;;;;5030959;28;20033;-56
2023/02/15 11:22:53;;;;;;;30.20;16.52;;;7.90;99.90;;;;;;5031007;28;20084;-49
2023/02/15 11:25:39;;;;;;;30.10;16.92;;;7.90;99.90;;;;;;4985543;28;20045;-53
2023/02/15 11:28:42;;;;;;;22.63;14.43;;;8.10;99.90;;;;;;5015270;28;20154;-51
2023/02/15 11:31:46;;;;;;;18.13;12.75;;;8.10;99.90;;;;;;5032725;28;20025;-56
2023/02/15 11:34:36;;;;;;;16.20;12.48;;;7.90;99.90;;;;;;5030768;28;20106;-53
2023/02/15 11:37:33;;;;;;;15.70;11.70;;;8.00;99.90;;;;;;5016706;28;20041;-54
2023/02/15 11:40:26;;;;;;;15.73;12.35;;;7.80;99.90;;;;;;5030715;28;20115;-53
2023/02/15 11:43:55;;;;;;;19.40;12.80;;;7.80;99.90;;;;;;5029526;28;20044;-51
2023/02/15 11:46:42;;;;;;;16.63;12.77;;;7.80;99.90;;;;;;5029649;28;20398;-54
2023/02/15 11:49:33;;;;;;;17.88;12.32;;;7.90;99.90;;;;;;5011021;28;20065;-54
2023/02/15 11:52:19;;;;;;;15.68;11.57;;;8.00;99.90;;;;;;5014207;28;20025;-53
2023/02/15 11:55:14;;;;;;;14.68;12.20;;;8.00;99.90;;;;;;5031315;28;20017;-55
2023/02/15 11:58:21;;;;;;;15.98;12.43;;;8.10;99.90;;;;;;5031734;28;20029;-54
2023/02/15 12:01:20;;;;;;;14.45;11.73;;;8.20;99.90;;;;;;5033198;28;20064;-51
2023/02/15 12:04:25;;;;;;;15.18;12.05;;;8.30;99.90;;;;;;5033029;28;20160;-50
2023/02/15 12:07:22;;;;;;;13.80;11.00;;;8.50;99.90;;;;;;5030994;28;20087;-55
2023/02/15 12:10:24;;;;;;;15.20;11.32;;;8.60;99.90;;;;;;5026920;28;20285;-55
2023/02/15 12:13:17;;;;;;;13.90;11.30;;;8.50;99.90;;;;;;5028738;28;20039;-50
2023/02/15 12:16:11;;;;;;;16.75;11.32;;;8.50;99.90;;;;;;5018152;28;20437;-53
2023/02/15 12:18:59;;;;;;;14.20;11.98;;;8.70;99.90;;;;;;5008969;28;20104;-53
2023/02/15 12:21:50;;;;;;;15.80;11.05;;;8.70;99.90;;;;;;5029641;28;20037;-51
2023/02/15 12:24:43;;;;;;;13.60;11.02;;;8.90;99.90;;;;;;5015721;28;20034;-52
2023/02/15 12:27:33;;;;;;;19.13;11.40;;;9.00;99.90;;;;;;5028854;28;20526;-51
2023/02/15 12:30:35;;;;;;;16.15;10.90;;;9.00;99.90;;;;;;5029387;28;20028;-49
2023/02/15 12:33:45;;;;;;;14.73;11.85;;;9.10;99.90;;;;;;5011205;28;20502;-54
2023/02/15 12:36:44;;;;;;;12.75;10.18;;;9.10;99.90;;;;;;5030386;28;20109;-55
2023/02/15 12:39:31;;;;;;;11.48;9.68;;;9.20;99.90;;;;;;5028771;28;20033;-55
2023/02/15 12:42:19;;;;;;;14.77;10.55;;;9.20;99.90;;;;;;5016512;28;20520;-53
2023/02/15 12:45:20;;;;;;;12.27;10.52;;;9.30;99.90;;;;;;5016835;28;20026;-55
2023/02/15 12:48:19;;;;;;;14.23;10.68;;;9.40;99.90;;;;;;5012840;28;20034;-52
2023/02/15 12:51:13;;;;;;;14.05;11.50;;;9.50;99.90;;;;;;5013739;28;20034;-53
2023/02/15 12:54:03;;;;;;;16.17;10.88;;;9.60;99.90;;;;;;5013850;28;20022;-52
2023/02/15 12:56:49;;;;;;;16.50;11.48;;;9.70;99.90;;;;;;5017197;28;20045;-52
2023/02/15 12:59:37;;;;;;;16.20;10.30;;;9.80;99.90;;;;;;5016899;28;20032;-50
2023/02/15 13:02:46;;;;;;;11.93;9.70;;;9.90;99.90;;;;;;5023364;28;20025;-51
2023/02/15 13:05:39;;;;;;;13.68;10.27;;;10.00;99.90;;;;;;5033943;28;20428;-54
2023/02/15 13:08:31;;;;;;;11.80;9.70;;;9.90;99.90;;;;;;5030764;28;20032;-54
2023/02/15 13:11:33;;;;;;;13.57;9.10;;;10.00;99.90;;;;;;5016589;28;20026;-52
2023/02/15 13:14:31;;;;;;;13.40;9.90;;;10.20;99.90;;;;;;4999441;28;20026;-55
2023/02/15 13:17:20;;;;;;;10.75;9.13;;;10.40;99.90;;;;;;5025720;28;20026;-49
2023/02/15 13:20:22;;;;;;;10.27;8.13;;;10.60;99.40;;;;;;5023394;28;20557;-50
2023/02/15 13:23:27;;;;;;;10.65;8.90;;;10.70;98.90;;;;;;5028271;28;20116;-50
2023/02/15 13:26:20;;;;;;;10.30;8.65;;;10.80;98.60;;;;;;5028499;28;20032;-50
2023/02/15 13:29:12;;;;;;;9.82;7.43;;;10.80;99.00;;;;;;5032165;28;20037;-52
2023/02/15 13:32:06;;;;;;;8.20;7.07;;;11.00;98.10;;;;;;5032606;28;20079;-52
2023/02/15 13:34:57;;;;;;;9.98;7.13;;;11.10;97.40;;;;;;5032604;28;20108;-53
2023/02/15 13:37:49;;;;;;;10.52;8.43;;;11.20;97.60;;;;;;5032286;28;20030;-49
2023/02/15 13:40:35;;;;;;;10.35;7.97;;;11.30;97.80;;;;;;5032869;28;20029;-53
2023/02/15 13:43:33;;;;;;;11.23;7.65;;;11.40;97.70;;;;;;5032571;28;20025;-51
2023/02/15 13:46:24;;;;;;;10.00;8.23;;;11.50;97.10;;;;;;5013750;28;20088;-53
2023/02/15 13:49:10;;;;;;;11.48;8.48;;;11.40;98.00;;;;;;5031200;28;20029;-53
2023/02/15 13:52:18;;;;;;;11.57;9.93;;;11.60;98.30;;;;;;5031715;28;20024;-52
2023/02/15 13:55:22;;;;;;;10.93;9.45;;;11.80;98.00;;;;;;5014320;28;20026;-48
2023/02/15 13:58:46;;;;;;;14.10;11.07;;;11.80;97.80;;;;;;5020136;28;20389;-50
2023/02/15 14:01:58;;;;;;;10.13;8.65;;;12.00;97.70;;;;;;5016631;28;20042;-53
2023/02/15 14:05:04;;;;;;;10.88;8.85;;;12.00;97.50;;;;;;5009730;28;20068;-52
2023/02/15 14:08:09;;;;;;;12.20;8.55;;;12.00;96.60;;;;;;5030242;28;20041;-50
2023/02/15 14:11:37;;;;;;;8.60;7.68;;;12.00;96.80;;;;;;5013001;28;20029;-52
2023/02/15 14:14:56;;;;;;;8.27;6.43;;;12.10;95.90;;;;;;5014464;28;20026;-49
2023/02/15 14:17:54;;;;;;;9.00;7.20;;;12.30;94.90;;;;;;5031391;28;20034;-53
2023/02/15 14:20:50;;;;;;;12.23;7.07;;;12.30;94.60;;;;;;5012544;28;20574;-49
2023/02/15 14:24:07;;;;;;;10.13;7.00;;;12.60;94.50;;;;;;5031702;28;20040;-48
2023/02/15 14:27:24;;;;;;;9.55;7.15;;;12.70;94.10;;;;;;5017916;28;20021;-47
2023/02/15 14:30:20;;;;;;;7.32;6.18;;;13.00;93.70;;;;;;5032715;28;20056;-51
2023/02/15 14:33:30;;;;;;;8.65;7.00;;;13.00;93.50;;;;;;5032079;28;20083;-49
2023/02/15 14:36:19;;;;;;;10.52;7.05;;;12.80;93.80;;;;;;5031698;28;20501;-47
2023/02/15 14:42:58;;;;;;;9.18;6.95;;;13.00;92.70;;;;;;5028314;28;20037;-48
2023/02/15 14:46:03;;;;;;;8.73;6.75;;;13.20;92.20;;;;;;5033506;28;20026;-54
2023/02/15 14:48:58;;;;;;;8.73;6.83;;;13.40;91.50;;;;;;5018938;28;20522;-52
2023/02/15 14:51:47;;;;;;;7.28;6.18;;;13.80;91.00;;;;;;5031468;28;20261;-49
2023/02/15 14:54:33;;;;;;;7.35;6.20;;;14.30;90.40;;;;;;5031504;28;20044;-49
2023/02/15 14:57:24;;;;;;;7.70;6.78;;;14.30;90.10;;;;;;5030745;28;20053;-48
2023/02/15 15:00:39;;;;;;;7.07;6.38;;;14.90;89.10;;;;;;5032157;28;20024;-50
2023/02/15 15:03:26;;;;;;;7.45;6.75;;;15.20;86.90;;;;;;5018137;28;20034;-51
2023/02/15 15:06:28;;;;;;;9.00;7.15;;;15.40;85.60;;;;;;5031972;28;20413;-51
2023/02/15 15:09:24;;;;;;;7.25;6.55;;;15.90;85.40;;;;;;5032272;28;20037;-53
2023/02/15 15:12:15;;;;;;;7.70;6.90;;;15.70;85.00;;;;;;5030801;28;20105;-51
2023/02/15 15:15:03;;;;;;;11.48;6.93;;;15.00;85.20;;;;;;5032545;28;20040;-50
2023/02/15 15:18:09;;;;;;;7.13;6.13;;;13.90;89.10;;;;;;5014568;28;20029;-49
2023/02/15 15:20:55;;;;;;;7.95;6.88;;;13.20;90.30;;;;;;5030601;28;20117;-48
2023/02/15 15:23:48;;;;;;;7.25;5.93;;;12.60;91.20;;;;;;5016416;28;20037;-51